sensor_id;sensor_type;location;lat;lon;timestamp;pressure;altitude;pressure_sealevel;temperature;humidity
62031;BME280;62035;52.094;5.112;2022-08-01T00:02:25;101762.94;;;21.43;100.00
62031;BME280;62035;52.094;5.112;2022-08-01T00:04:53;101765.59;;;21.37;100.00
62031;BME280;62035;52.094;5.112;2022-08-01T00:07:21;101768.03;;;21.32;100.00
62031;BME280;62035;52.094;5.112;2022-08-01T00:09:48;101769.47;;;21.27;100.00
62031;BME280;62035;52.094;5.112;2022-08-01T00:12:16;101768.88;;;21.32;100.00
62031;BME280;62035;52.094;5.112;2022-08-01T00:14:45;101772.44;;;21.33;100.00
62031;BME280;62035;52.094;5.112;2022-08-01T00:17:12;101769.78;;;21.39;100.00
62031;BME280;62035;52.094;5.112;2022-08-01T00:19:40;101774.75;;;21.36;100.00
62031;BME280;62035;52.094;5.112;2022-08-01T00:22:07;101776.16;;;21.32;100.00
62031;BME280;62035;52.094;5.112;2022-08-01T00:24:35;101774.84;;;21.49;100.00
62031;BME280;62035;52.094;5.112;2022-08-01T00:27:03;101783.03;;;21.62;100.00
62031;BME280;62035;52.094;5.112;2022-08-01T00:29:31;101784.91;;;21.61;100.00
62031;BME280;62035;52.094;5.112;2022-08-01T00:31:59;101777.63;;;21.62;100.00
62031;BME280;62035;52.094;5.112;2022-08-01T00:34:27;101776.63;;;21.70;100.00
62031;BME280;62035;52.094;5.112;2022-08-01T00:36:54;101776.47;;;21.78;100.00
62031;BME280;62035;52.094;5.112;2022-08-01T00:39:22;101776.19;;;21.66;100.00
62031;BME280;62035;52.094;5.112;2022-08-01T00:41:50;101775.16;;;21.67;100.00
62031;BME280;62035;52.094;5.112;2022-08-01T00:44:17;101773.72;;;21.71;100.00
62031;BME280;62035;52.094;5.112;2022-08-01T00:46:45;101774.50;;;21.65;100.00
62031;BME280;62035;52.094;5.112;2022-08-01T00:49:14;101780.53;;;21.60;100.00
62031;BME280;62035;52.094;5.112;2022-08-01T00:51:41;101774.69;;;21.57;100.00
62031;BME280;62035;52.094;5.112;2022-08-01T00:54:09;101783.16;;;21.47;100.00
62031;BME280;62035;52.094;5.112;2022-08-01T00:56:37;101787.59;;;21.55;100.00
62031;BME280;62035;52.094;5.112;2022-08-01T00:59:05;101783.03;;;21.62;100.00
62031;BME280;62035;52.094;5.112;2022-08-01T01:01:34;101789.66;;;21.53;100.00
62031;BME280;62035;52.094;5.112;2022-08-01T01:04:02;101786.81;;;21.33;100.00
62031;BME280;62035;52.094;5.112;2022-08-01T01:06:40;101767.66;;;21.35;100.00
62031;BME280;62035;52.094;5.112;2022-08-01T01:09:31;101780.84;;;21.44;100.00
62031;BME280;62035;52.094;5.112;2022-08-01T01:12:13;101783.66;;;21.08;100.00
62031;BME280;62035;52.094;5.112;2022-08-01T01:14:52;101791.66;;;21.16;100.00
62031;BME280;62035;52.094;5.112;2022-08-01T01:17:28;101787.13;;;21.23;100.00
62031;BME280;62035;52.094;5.112;2022-08-01T01:20:01;101778.19;;;21.23;100.00
62031;BME280;62035;52.094;5.112;2022-08-01T01:22:46;101777.81;;;21.05;100.00
62031;BME280;62035;52.094;5.112;2022-08-01T01:25:39;101778.72;;;21.12;100.00
62031;BME280;62035;52.094;5.112;2022-08-01T01:28:19;101772.59;;;21.03;100.00
62031;BME280;62035;52.094;5.112;2022-08-01T01:30:55;101773.38;;;20.97;100.00
62031;BME280;62035;52.094;5.112;2022-08-01T01:33:26;101780.06;;;21.01;100.00
62031;BME280;62035;52.094;5.112;2022-08-01T01:35:59;101772.59;;;21.03;100.00
62031;BME280;62035;52.094;5.112;2022-08-01T01:38:34;101778.50;;;21.13;100.00
62031;BME280;62035;52.094;5.112;2022-08-01T01:41:08;101781.53;;;21.04;100.00
62031;BME280;62035;52.094;5.112;2022-08-01T01:43:38;101775.22;;;21.18;100.00
62031;BME280;62035;52.094;5.112;2022-08-01T01:46:09;101776.25;;;21.17;100.00
62031;BME280;62035;52.094;5.112;2022-08-01T01:48:39;101789.47;;;21.26;100.00
62031;BME280;62035;52.094;5.112;2022-08-01T01:51:12;101788.22;;;21.29;100.00
62031;BME280;62035;52.094;5.112;2022-08-01T01:53:44;101779.31;;;21.35;100.00
62031;BME280;62035;52.094;5.112;2022-08-01T01:56:14;101779.31;;;21.35;100.00
62031;BME280;62035;52.094;5.112;2022-08-01T01:58:45;101786.16;;;21.31;100.00
62031;BME280;62035;52.094;5.112;2022-08-01T02:01:20;101783.13;;;21.19;100.00
62031;BME280;62035;52.094;5.112;2022-08-01T02:03:52;101780.69;;;21.24;100.00
62031;BME280;62035;52.094;5.112;2022-08-01T02:06:21;101782.91;;;21.14;100.00
62031;BME280;62035;52.094;5.112;2022-08-01T02:08:52;101779.03;;;21.02;100.00
62031;BME280;62035;52.094;5.112;2022-08-01T02:11:21;101783.16;;;20.98;100.00
62031;BME280;62035;52.094;5.112;2022-08-01T02:13:53;101799.53;;;20.90;100.00
62031;BME280;62035;52.094;5.112;2022-08-01T02:16:31;101799.47;;;20.83;100.00
62031;BME280;62035;52.094;5.112;2022-08-01T02:19:02;101797.75;;;20.76;100.00
62031;BME280;62035;52.094;5.112;2022-08-01T02:21:33;101794.31;;;20.67;100.00
62031;BME280;62035;52.094;5.112;2022-08-01T02:24:10;101795.50;;;20.79;100.00
62031;BME280;62035;52.094;5.112;2022-08-01T02:26:49;101795.28;;;20.81;100.00
62031;BME280;62035;52.094;5.112;2022-08-01T02:29:24;101792.44;;;20.89;100.00
62031;BME280;62035;52.094;5.112;2022-08-01T02:32:02;101794.00;;;20.77;100.00
62031;BME280;62035;52.094;5.112;2022-08-01T02:34:33;101801.94;;;20.78;100.00
62031;BME280;62035;52.094;5.112;2022-08-01T02:37:03;101777.63;;;20.63;100.00
62031;BME280;62035;52.094;5.112;2022-08-01T02:39:34;101800.91;;;20.79;100.00
62031;BME280;62035;52.094;5.112;2022-08-01T02:42:06;101800.38;;;20.90;100.00
62031;BME280;62035;52.094;5.112;2022-08-01T02:44:36;101798.75;;;20.96;100.00
62031;BME280;62035;52.094;5.112;2022-08-01T02:47:07;101796.69;;;20.98;100.00
62031;BME280;62035;52.094;5.112;2022-08-01T02:49:40;101791.16;;;21.06;100.00
62031;BME280;62035;52.094;5.112;2022-08-01T02:52:13;101792.25;;;21.12;100.00
62031;BME280;62035;52.094;5.112;2022-08-01T02:54:44;101786.75;;;21.05;100.00
62031;BME280;62035;52.094;5.112;2022-08-01T02:57:15;101780.13;;;21.08;100.00
62031;BME280;62035;52.094;5.112;2022-08-01T02:59:45;101777.63;;;21.06;100.00
62031;BME280;62035;52.094;5.112;2022-08-01T03:02:18;101784.75;;;21.14;100.00
62031;BME280;62035;52.094;5.112;2022-08-01T03:04:50;101772.72;;;20.95;100.00
62031;BME280;62035;52.094;5.112;2022-08-01T03:07:20;101771.38;;;20.84;100.00
62031;BME280;62035;52.094;5.112;2022-08-01T03:09:51;101782.78;;;21.01;100.00
62031;BME280;62035;52.094;5.112;2022-08-01T03:12:24;101791.28;;;20.98;100.00
62031;BME280;62035;52.094;5.112;2022-08-01T03:14:56;101793.72;;;20.93;100.00
62031;BME280;62035;52.094;5.112;2022-08-01T03:17:28;101796.69;;;20.98;100.00
62031;BME280;62035;52.094;5.112;2022-08-01T03:19:58;101799.34;;;20.91;100.00
62031;BME280;62035;52.094;5.112;2022-08-01T03:22:30;101801.13;;;20.84;100.00
62031;BME280;62035;52.094;5.112;2022-08-01T03:25:01;101798.13;;;20.73;100.00
62031;BME280;62035;52.094;5.112;2022-08-01T03:27:30;101797.75;;;20.76;100.00
62031;BME280;62035;52.094;5.112;2022-08-01T03:30:02;101805.59;;;20.71;100.00
62031;BME280;62035;52.094;5.112;2022-08-01T03:32:33;101804.03;;;20.61;100.00
62031;BME280;62035;52.094;5.112;2022-08-01T03:35:01;101808.06;;;20.51;100.00
62031;BME280;62035;52.094;5.112;2022-08-01T03:37:34;101800.72;;;20.45;100.00
62031;BME280;62035;52.094;5.112;2022-08-01T03:40:07;101804.78;;;20.55;100.00
62031;BME280;62035;52.094;5.112;2022-08-01T03:42:42;101805.94;;;20.46;100.00
62031;BME280;62035;52.094;5.112;2022-08-01T03:45:19;101797.56;;;20.41;100.00
62031;BME280;62035;52.094;5.112;2022-08-01T03:47:56;101801.41;;;20.32;100.00
62031;BME280;62035;52.094;5.112;2022-08-01T03:50:29;101803.63;;;20.28;100.00
62031;BME280;62035;52.094;5.112;2022-08-01T03:53:01;101799.53;;;20.33;100.00
62031;BME280;62035;52.094;5.112;2022-08-01T03:55:32;101800.66;;;20.38;100.00
62031;BME280;62035;52.094;5.112;2022-08-01T03:58:03;101811.06;;;20.41;100.00
62031;BME280;62035;52.094;5.112;2022-08-01T04:00:32;101811.94;;;20.27;100.00
62031;BME280;62035;52.094;5.112;2022-08-01T04:03:02;101813.34;;;20.23;100.00
62031;BME280;62035;52.094;5.112;2022-08-01T04:05:30;101806.53;;;20.27;100.00
62031;BME280;62035;52.094;5.112;2022-08-01T04:07:58;101810.25;;;20.26;100.00
62031;BME280;62035;52.094;5.112;2022-08-01T04:10:28;101803.38;;;20.23;100.00
62031;BME280;62035;52.094;5.112;2022-08-01T04:12:56;101807.75;;;20.10;100.00
62031;BME280;62035;52.094;5.112;2022-08-01T04:15:24;101815.53;;;19.98;100.00
62031;BME280;62035;52.094;5.112;2022-08-01T04:17:51;101804.94;;;20.18;100.00
62031;BME280;62035;52.094;5.112;2022-08-01T04:20:21;101811.66;;;20.22;100.00
62031;BME280;62035;52.094;5.112;2022-08-01T04:22:49;101820.03;;;20.27;100.00
62031;BME280;62035;52.094;5.112;2022-08-01T04:25:33;101811.94;;;20.27;100.00
62031;BME280;62035;52.094;5.112;2022-08-01T04:28:06;101819.66;;;20.30;100.00
62031;BME280;62035;52.094;5.112;2022-08-01T04:30:43;101821.81;;;20.35;100.00
62031;BME280;62035;52.094;5.112;2022-08-01T04:33:15;101826.88;;;20.38;100.00
62031;BME280;62035;52.094;5.112;2022-08-01T04:35:48;101821.13;;;20.47;100.00
62031;BME280;62035;52.094;5.112;2022-08-01T04:38:20;101821.94;;;20.62;100.00
62031;BME280;62035;52.094;5.112;2022-08-01T04:40:54;101828.47;;;20.68;100.00
62031;BME280;62035;52.094;5.112;2022-08-01T04:43:22;101822.00;;;20.69;100.00
62031;BME280;62035;52.094;5.112;2022-08-01T04:45:51;101831.47;;;20.80;100.00
62031;BME280;62035;52.094;5.112;2022-08-01T04:48:19;101834.78;;;20.75;100.00
62031;BME280;62035;52.094;5.112;2022-08-01T04:50:52;101831.16;;;20.89;100.00
62031;BME280;62035;52.094;5.112;2022-08-01T04:53:21;101831.72;;;20.85;100.00
62031;BME280;62035;52.094;5.112;2022-08-01T04:55:48;101840.81;;;20.98;100.00
62031;BME280;62035;52.094;5.112;2022-08-01T04:58:17;101838.44;;;21.10;100.00
62031;BME280;62035;52.094;5.112;2022-08-01T05:00:45;101831.63;;;21.14;100.00
62031;BME280;62035;52.094;5.112;2022-08-01T05:03:13;101837.41;;;21.11;100.00
62031;BME280;62035;52.094;5.112;2022-08-01T05:05:40;101835.16;;;21.15;100.00
62031;BME280;62035;52.094;5.112;2022-08-01T05:08:09;101838.91;;;21.14;100.00
62031;BME280;62035;52.094;5.112;2022-08-01T05:10:37;101845.84;;;21.02;100.00
62031;BME280;62035;52.094;5.112;2022-08-01T05:13:05;101852.41;;;20.71;100.00
62031;BME280;62035;52.094;5.112;2022-08-01T05:15:34;101857.50;;;20.30;100.00
62031;BME280;62035;52.094;5.112;2022-08-01T05:18:03;101859.84;;;20.18;100.00
62031;BME280;62035;52.094;5.112;2022-08-01T05:20:31;101868.06;;;20.25;100.00
62031;BME280;62035;52.094;5.112;2022-08-01T05:22:59;101855.47;;;20.32;100.00
62031;BME280;62035;52.094;5.112;2022-08-01T05:25:27;101859.81;;;20.48;100.00
62031;BME280;62035;52.094;5.112;2022-08-01T05:27:55;101860.47;;;20.50;100.00
62031;BME280;62035;52.094;5.112;2022-08-01T05:30:23;101854.88;;;20.51;100.00
62031;BME280;62035;52.094;5.112;2022-08-01T05:32:50;101856.09;;;20.49;100.00
62031;BME280;62035;52.094;5.112;2022-08-01T05:35:18;101863.81;;;20.67;100.00
62031;BME280;62035;52.094;5.112;2022-08-01T05:37:45;101864.41;;;20.47;100.00
62031;BME280;62035;52.094;5.112;2022-08-01T05:40:13;101869.25;;;20.37;100.00
62031;BME280;62035;52.094;5.112;2022-08-01T05:42:42;101864.66;;;20.52;100.00
62031;BME280;62035;52.094;5.112;2022-08-01T05:45:10;101866.72;;;20.50;100.00
62031;BME280;62035;52.094;5.112;2022-08-01T05:47:37;101874.53;;;20.60;100.00
62031;BME280;62035;52.094;5.112;2022-08-01T05:50:06;101873.91;;;20.58;100.00
62031;BME280;62035;52.094;5.112;2022-08-01T05:52:34;101878.81;;;20.69;100.00
62031;BME280;62035;52.094;5.112;2022-08-01T05:55:03;101876.66;;;20.79;100.00
62031;BME280;62035;52.094;5.112;2022-08-01T05:57:31;101876.84;;;20.99;100.00
62031;BME280;62035;52.094;5.112;2022-08-01T06:00:01;101875.88;;;21.07;100.00
62031;BME280;62035;52.094;5.112;2022-08-01T06:02:29;101870.16;;;21.16;100.00
62031;BME280;62035;52.094;5.112;2022-08-01T06:04:56;101872.44;;;21.19;100.00
62031;BME280;62035;52.094;5.112;2022-08-01T06:07:24;101882.09;;;21.22;100.00
62031;BME280;62035;52.094;5.112;2022-08-01T06:09:51;101871.91;;;21.24;100.00
62031;BME280;62035;52.094;5.112;2022-08-01T06:12:19;101879.19;;;21.45;100.00
62031;BME280;62035;52.094;5.112;2022-08-01T06:14:46;101889.44;;;21.49;100.00
62031;BME280;62035;52.094;5.112;2022-08-01T06:17:15;101889.31;;;21.64;100.00
62031;BME280;62035;52.094;5.112;2022-08-01T06:19:43;101889.69;;;21.54;100.00
62031;BME280;62035;52.094;5.112;2022-08-01T06:22:10;101883.25;;;21.62;100.00
62031;BME280;62035;52.094;5.112;2022-08-01T06:24:38;101882.22;;;21.63;100.00
62031;BME280;62035;52.094;5.112;2022-08-01T06:27:06;101876.13;;;21.82;100.00
62031;BME280;62035;52.094;5.112;2022-08-01T06:29:33;101871.88;;;21.73;100.00
62031;BME280;62035;52.094;5.112;2022-08-01T06:32:01;101877.75;;;21.77;100.00
62031;BME280;62035;52.094;5.112;2022-08-01T06:34:30;101872.84;;;21.87;100.00
62031;BME280;62035;52.094;5.112;2022-08-01T06:36:57;101875.63;;;21.72;100.00
62031;BME280;62035;52.094;5.112;2022-08-01T06:39:25;101877.75;;;21.77;100.00
62031;BME280;62035;52.094;5.112;2022-08-01T06:41:53;101873.72;;;21.94;100.00
62031;BME280;62035;52.094;5.112;2022-08-01T06:44:20;101872.72;;;22.02;100.00
62031;BME280;62035;52.094;5.112;2022-08-01T06:46:48;101879.56;;;21.98;100.00
62031;BME280;62035;52.094;5.112;2022-08-01T06:49:15;101883.31;;;21.96;100.00
62031;BME280;62035;52.094;5.112;2022-08-01T06:51:45;101887.72;;;21.98;100.00
62031;BME280;62035;52.094;5.112;2022-08-01T06:54:12;101889.63;;;21.76;100.00
62031;BME280;62035;52.094;5.112;2022-08-01T06:56:40;101884.34;;;21.95;100.00
62031;BME280;62035;52.094;5.112;2022-08-01T06:59:08;101885.00;;;21.98;100.00
62031;BME280;62035;52.094;5.112;2022-08-01T07:01:35;101895.06;;;22.04;100.00
62031;BME280;62035;52.094;5.112;2022-08-01T07:04:03;101889.00;;;22.02;100.00
62031;BME280;62035;52.094;5.112;2022-08-01T07:06:31;101895.28;;;22.09;100.00
62031;BME280;62035;52.094;5.112;2022-08-01T07:09:00;101890.75;;;21.88;100.00
62031;BME280;62035;52.094;5.112;2022-08-01T07:11:28;101886.44;;;21.93;100.00
62031;BME280;62035;52.094;5.112;2022-08-01T07:13:55;101895.34;;;21.87;100.00
62031;BME280;62035;52.094;5.112;2022-08-01T07:16:23;101898.78;;;22.03;100.00
62031;BME280;62035;52.094;5.112;2022-08-01T07:18:50;101901.25;;;21.98;100.00
62031;BME280;62035;52.094;5.112;2022-08-01T07:21:18;101900.41;;;22.25;100.00
62031;BME280;62035;52.094;5.112;2022-08-01T07:23:46;101897.88;;;22.23;100.00
62031;BME280;62035;52.094;5.112;2022-08-01T07:26:15;101903.66;;;22.55;100.00
62031;BME280;62035;52.094;5.112;2022-08-01T07:28:43;101900.56;;;22.58;100.00
62031;BME280;62035;52.094;5.112;2022-08-01T07:31:10;101907.16;;;22.90;100.00
62031;BME280;62035;52.094;5.112;2022-08-01T07:33:38;101900.78;;;22.63;100.00
62031;BME280;62035;52.094;5.112;2022-08-01T07:36:06;101904.09;;;22.58;100.00
62031;BME280;62035;52.094;5.112;2022-08-01T07:38:33;101911.31;;;22.86;100.00
62031;BME280;62035;52.094;5.112;2022-08-01T07:41:01;101889.09;;;22.62;100.00
62031;BME280;62035;52.094;5.112;2022-08-01T07:43:30;101905.13;;;22.57;100.00
62031;BME280;62035;52.094;5.112;2022-08-01T07:45:57;101904.50;;;22.55;100.00
62031;BME280;62035;52.094;5.112;2022-08-01T07:48:25;101901.19;;;22.60;100.00
62031;BME280;62035;52.094;5.112;2022-08-01T07:50:53;101899.75;;;22.64;100.00
62031;BME280;62035;52.094;5.112;2022-08-01T07:53:20;101897.09;;;22.77;100.00
62031;BME280;62035;52.094;5.112;2022-08-01T07:55:48;101904.22;;;22.85;100.00
62031;BME280;62035;52.094;5.112;2022-08-01T07:58:16;101899.66;;;22.92;100.00
62031;BME280;62035;52.094;5.112;2022-08-01T08:00:45;101910.09;;;22.95;100.00
62031;BME280;62035;52.094;5.112;2022-08-01T08:03:13;101908.88;;;22.56;100.00
62031;BME280;62035;52.094;5.112;2022-08-01T08:05:40;101903.19;;;22.38;100.00
62031;BME280;62035;52.094;5.112;2022-08-01T08:08:08;101908.09;;;22.62;100.00
62031;BME280;62035;52.094;5.112;2022-08-01T08:10:37;101906.41;;;22.61;100.00
62031;BME280;62035;52.094;5.112;2022-08-01T08:13:05;101915.00;;;22.72;100.00
62031;BME280;62035;52.094;5.112;2022-08-01T08:15:32;101910.81;;;22.62;100.00
62031;BME280;62035;52.094;5.112;2022-08-01T08:18:02;101916.69;;;22.73;100.00
62031;BME280;62035;52.094;5.112;2022-08-01T08:20:30;101919.31;;;23.07;100.00
62031;BME280;62035;52.094;5.112;2022-08-01T08:22:58;101892.41;;;23.39;100.00
62031;BME280;62035;52.094;5.112;2022-08-01T08:25:25;101899.28;;;23.35;100.00
62031;BME280;62035;52.094;5.112;2022-08-01T08:27:54;101905.13;;;23.32;100.00
62031;BME280;62035;52.094;5.112;2022-08-01T08:30:22;101913.97;;;23.73;100.00
62031;BME280;62035;52.094;5.112;2022-08-01T08:32:50;101905.59;;;23.68;100.00
62031;BME280;62035;52.094;5.112;2022-08-01T08:35:19;101904.31;;;23.51;100.00
62031;BME280;62035;52.094;5.112;2022-08-01T08:37:47;101906.00;;;23.98;100.00
62031;BME280;62035;52.094;5.112;2022-08-01T08:40:15;101900.91;;;24.21;100.00
62031;BME280;62035;52.094;5.112;2022-08-01T08:42:44;101907.19;;;24.29;100.00
62031;BME280;62035;52.094;5.112;2022-08-01T08:45:12;101907.59;;;24.32;100.00
62031;BME280;62035;52.094;5.112;2022-08-01T08:47:41;101916.19;;;24.22;100.00
62031;BME280;62035;52.094;5.112;2022-08-01T08:50:12;101919.19;;;24.66;100.00
62031;BME280;62035;52.094;5.112;2022-08-01T08:52:43;101930.41;;;24.82;100.00
62031;BME280;62035;52.094;5.112;2022-08-01T08:55:16;101922.78;;;24.59;100.00
62031;BME280;62035;52.094;5.112;2022-08-01T08:57:44;101916.16;;;24.87;100.00
62031;BME280;62035;52.094;5.112;2022-08-01T09:00:13;101921.47;;;24.75;100.00
62031;BME280;62035;52.094;5.112;2022-08-01T09:02:42;101918.75;;;24.75;100.00
62031;BME280;62035;52.094;5.112;2022-08-01T09:05:11;101927.03;;;24.87;100.00
62031;BME280;62035;52.094;5.112;2022-08-01T09:07:38;101923.84;;;25.03;100.00
62031;BME280;62035;52.094;5.112;2022-08-01T09:10:08;101937.03;;;25.06;100.00
62031;BME280;62035;52.094;5.112;2022-08-01T09:12:36;101918.63;;;24.95;100.00
62031;BME280;62035;52.094;5.112;2022-08-01T09:15:05;101932.69;;;25.30;100.00
62031;BME280;62035;52.094;5.112;2022-08-01T09:17:39;101937.28;;;24.98;100.00
62031;BME280;62035;52.094;5.112;2022-08-01T09:20:22;101932.78;;;25.17;100.00
62031;BME280;62035;52.094;5.112;2022-08-01T09:22:50;101930.78;;;25.31;100.00
62031;BME280;62035;52.094;5.112;2022-08-01T09:25:20;101930.66;;;25.75;100.00
62031;BME280;62035;52.094;5.112;2022-08-01T09:27:47;101932.50;;;25.81;100.00
62031;BME280;62035;52.094;5.112;2022-08-01T09:30:16;101935.25;;;26.00;100.00
62031;BME280;62035;52.094;5.112;2022-08-01T09:32:55;101946.31;;;26.05;100.00
62031;BME280;62035;52.094;5.112;2022-08-01T09:35:25;101939.66;;;26.01;100.00
62031;BME280;62035;52.094;5.112;2022-08-01T09:38:11;101933.69;;;25.92;100.00
62031;BME280;62035;52.094;5.112;2022-08-01T09:40:51;101944.59;;;25.60;100.00
62031;BME280;62035;52.094;5.112;2022-08-01T09:43:21;101938.31;;;26.10;100.00
62031;BME280;62035;52.094;5.112;2022-08-01T09:45:50;101936.19;;;26.37;100.00
62031;BME280;62035;52.094;5.112;2022-08-01T09:48:19;101950.00;;;26.17;100.00
62031;BME280;62035;52.094;5.112;2022-08-01T09:50:48;101953.00;;;26.09;100.00
62031;BME280;62035;52.094;5.112;2022-08-01T09:53:17;101955.13;;;26.07;100.00
62031;BME280;62035;52.094;5.112;2022-08-01T09:55:46;101946.50;;;26.10;100.00
62031;BME280;62035;52.094;5.112;2022-08-01T09:58:18;101954.34;;;26.00;100.00
62031;BME280;62035;52.094;5.112;2022-08-01T10:00:58;101955.44;;;26.17;100.00
62031;BME280;62035;52.094;5.112;2022-08-01T10:03:26;101945.72;;;26.03;100.00
62031;BME280;62035;52.094;5.112;2022-08-01T10:05:55;101950.25;;;25.66;100.00
62031;BME280;62035;52.094;5.112;2022-08-01T10:08:24;101955.88;;;25.96;100.00
62031;BME280;62035;52.094;5.112;2022-08-01T10:11:08;101956.84;;;26.01;100.00
62031;BME280;62035;52.094;5.112;2022-08-01T10:13:39;101938.34;;;26.46;100.00
62031;BME280;62035;52.094;5.112;2022-08-01T10:16:07;101947.09;;;26.12;100.00
62031;BME280;62035;52.094;5.112;2022-08-01T10:18:38;101957.84;;;26.68;100.00
62031;BME280;62035;52.094;5.112;2022-08-01T10:21:10;101952.84;;;26.47;100.00
62031;BME280;62035;52.094;5.112;2022-08-01T10:23:38;101959.06;;;26.54;100.00
62031;BME280;62035;52.094;5.112;2022-08-01T10:26:07;101960.34;;;26.33;100.00
62031;BME280;62035;52.094;5.112;2022-08-01T10:28:39;101957.69;;;26.02;100.00
62031;BME280;62035;52.094;5.112;2022-08-01T10:31:12;101952.72;;;25.99;100.00
62031;BME280;62035;52.094;5.112;2022-08-01T10:33:40;101949.16;;;26.16;100.00
62031;BME280;62035;52.094;5.112;2022-08-01T10:36:08;101954.34;;;26.61;100.00
62031;BME280;62035;52.094;5.112;2022-08-01T10:38:39;101952.38;;;26.68;100.00
62031;BME280;62035;52.094;5.112;2022-08-01T10:41:08;101953.81;;;26.52;100.00
62031;BME280;62035;52.094;5.112;2022-08-01T10:43:36;101950.88;;;26.54;100.00
62031;BME280;62035;52.094;5.112;2022-08-01T10:46:05;101944.94;;;26.57;100.00
62031;BME280;62035;52.094;5.112;2022-08-01T10:48:40;101948.25;;;26.22;100.00
62031;BME280;62035;52.094;5.112;2022-08-01T10:51:12;101954.09;;;26.26;100.00
62031;BME280;62035;52.094;5.112;2022-08-01T10:53:46;101961.09;;;26.40;100.00
62031;BME280;62035;52.094;5.112;2022-08-01T10:56:15;101958.97;;;26.79;100.00
62031;BME280;62035;52.094;5.112;2022-08-01T10:58:44;101960.00;;;27.14;97.73
62031;BME280;62035;52.094;5.112;2022-08-01T11:01:21;101965.84;;;27.00;93.46
62031;BME280;62035;52.094;5.112;2022-08-01T11:03:58;101966.16;;;27.10;93.95
62031;BME280;62035;52.094;5.112;2022-08-01T11:07:02;101959.69;;;27.34;96.49
62031;BME280;62035;52.094;5.112;2022-08-01T11:09:39;101959.56;;;26.99;98.67
62031;BME280;62035;52.094;5.112;2022-08-01T11:12:10;101959.91;;;26.36;100.00
62031;BME280;62035;52.094;5.112;2022-08-01T11:17:55;101965.06;;;26.19;100.00
62031;BME280;62035;52.094;5.112;2022-08-01T11:20:24;101964.28;;;26.55;100.00
62031;BME280;62035;52.094;5.112;2022-08-01T11:23:19;101973.63;;;26.66;100.00
62031;BME280;62035;52.094;5.112;2022-08-01T11:26:06;101970.66;;;26.49;100.00
62031;BME280;62035;52.094;5.112;2022-08-01T11:28:35;101974.31;;;26.18;99.35
62031;BME280;62035;52.094;5.112;2022-08-01T11:31:29;101975.28;;;26.49;100.00
62031;BME280;62035;52.094;5.112;2022-08-01T11:34:00;101967.28;;;26.84;96.07
62031;BME280;62035;52.094;5.112;2022-08-01T11:36:28;101975.13;;;26.62;91.91
62031;BME280;62035;52.094;5.112;2022-08-01T11:39:16;101967.66;;;27.36;90.24
62031;BME280;62035;52.094;5.112;2022-08-01T11:41:47;101980.81;;;26.79;88.21
62031;BME280;62035;52.094;5.112;2022-08-01T11:44:18;101978.69;;;26.63;88.57
62031;BME280;62035;52.094;5.112;2022-08-01T11:46:57;101977.84;;;26.80;81.10
62031;BME280;62035;52.094;5.112;2022-08-01T11:49:43;101964.22;;;26.44;82.63
62031;BME280;62035;52.094;5.112;2022-08-01T11:52:18;101977.44;;;26.95;80.56
62031;BME280;62035;52.094;5.112;2022-08-01T11:54:52;101974.44;;;27.45;72.55
62031;BME280;62035;52.094;5.112;2022-08-01T11:57:23;101983.59;;;27.09;71.23
62031;BME280;62035;52.094;5.112;2022-08-01T11:59:53;101981.63;;;27.58;68.31
62031;BME280;62035;52.094;5.112;2022-08-01T12:02:24;101972.84;;;26.96;68.19
62031;BME280;62035;52.094;5.112;2022-08-01T12:04:56;101979.97;;;26.42;71.21
62031;BME280;62035;52.094;5.112;2022-08-01T12:07:26;101978.53;;;27.54;67.65
62031;BME280;62035;52.094;5.112;2022-08-01T12:10:00;101975.84;;;27.77;65.15
62031;BME280;62035;52.094;5.112;2022-08-01T12:12:31;101981.19;;;27.72;65.97
62031;BME280;62035;52.094;5.112;2022-08-01T12:15:01;101981.19;;;27.72;66.12
62031;BME280;62035;52.094;5.112;2022-08-01T12:17:35;101974.81;;;28.25;66.60
62031;BME280;62035;52.094;5.112;2022-08-01T12:20:07;101981.22;;;28.42;62.62
62031;BME280;62035;52.094;5.112;2022-08-01T12:22:36;101988.34;;;28.20;61.79
62031;BME280;62035;52.094;5.112;2022-08-01T12:25:06;101979.47;;;28.25;60.06
62031;BME280;62035;52.094;5.112;2022-08-01T12:27:36;101987.84;;;27.76;59.59
62031;BME280;62035;52.094;5.112;2022-08-01T12:30:07;101986.03;;;28.75;52.92
62031;BME280;62035;52.094;5.112;2022-08-01T12:32:36;101979.91;;;29.25;48.61
62031;BME280;62035;52.094;5.112;2022-08-01T12:35:09;101986.41;;;28.79;48.71
62031;BME280;62035;52.094;5.112;2022-08-01T12:37:39;101973.34;;;28.58;48.52
62031;BME280;62035;52.094;5.112;2022-08-01T12:40:14;101980.03;;;29.02;45.98
62031;BME280;62035;52.094;5.112;2022-08-01T12:42:45;101993.31;;;28.70;46.61
62031;BME280;62035;52.094;5.112;2022-08-01T12:45:18;101982.38;;;29.10;44.42
62031;BME280;62035;52.094;5.112;2022-08-01T12:47:48;101985.72;;;29.29;43.84
62031;BME280;62035;52.094;5.112;2022-08-01T12:50:21;101986.66;;;29.79;42.09
62031;BME280;62035;52.094;5.112;2022-08-01T12:52:50;101988.19;;;29.42;44.60
62031;BME280;62035;52.094;5.112;2022-08-01T12:55:20;101984.19;;;29.04;47.58
62031;BME280;62035;52.094;5.112;2022-08-01T12:58:03;101984.44;;;29.19;50.02
62031;BME280;62035;52.094;5.112;2022-08-01T13:00:31;101978.72;;;28.41;51.43
62031;BME280;62035;52.094;5.112;2022-08-01T13:03:03;101983.56;;;28.62;51.60